Time;durP1;ratioP1;P1;durP2;ratioP2;P2;SDS_P1;SDS_P2;PMS_P1;PMS_P2;Temp;Humidity;BMP_temperature;BMP_pressure;BME280_temperature;BME280_humidity;BME280_pressure;Samples;Min_cycle;Max_cycle;Signal;HPM_P1;HPM_P2
2024/02/29 05:01:26;;;;;;;3.27;2.93;;;-0.30;97.30;;;;;;5567871;23;21081;-86
2024/02/29 05:03:53;;;;;;;1.63;1.53;;;-0.30;97.30;;;;;;4951157;28;20450;-85
2024/02/29 05:06:18;;;;;;;2.77;2.57;;;-0.20;97.30;;;;;;4953185;28;20282;-86
2024/02/29 05:08:44;;;;;;;3.23;3.03;;;-0.20;97.30;;;;;;4953263;28;20509;-86
2024/02/29 05:11:13;;;;;;;2.93;1.73;;;-0.20;97.30;;;;;;4946917;28;20192;-86
2024/02/29 05:13:39;;;;;;;6.50;3.60;;;-0.20;97.30;;;;;;4934244;29;20432;-84
2024/02/29 05:16:05;;;;;;;1.73;1.63;;;-0.20;97.30;;;;;;4934223;29;20548;-86
2024/02/29 05:18:32;;;;;;;1.73;1.63;;;-0.20;97.30;;;;;;4934905;29;20459;-84
2024/02/29 05:20:57;;;;;;;5.90;2.70;;;-0.30;97.30;;;;;;4934214;29;20999;-86
2024/02/29 05:23:24;;;;;;;2.17;1.90;;;-0.30;97.30;;;;;;4947810;28;20536;-87
2024/02/29 05:25:53;;;;;;;2.57;2.33;;;-0.30;97.30;;;;;;4945294;29;20451;-86
2024/02/29 05:28:18;;;;;;;7.13;2.90;;;-0.30;97.30;;;;;;4945461;29;20183;-86
2024/02/29 05:30:44;;;;;;;3.73;2.77;;;-0.30;97.30;;;;;;4949454;29;20451;-84
2024/02/29 05:33:10;;;;;;;2.47;2.27;;;-0.30;97.30;;;;;;4947724;29;20180;-84
2024/02/29 05:35:36;;;;;;;2.40;1.80;;;-0.30;97.30;;;;;;4948160;29;20898;-86
2024/02/29 05:38:04;;;;;;;2.70;2.43;;;-0.30;97.30;;;;;;4948238;29;20271;-85
2024/02/29 05:40:31;;;;;;;5.00;2.60;;;-0.40;97.30;;;;;;4946570;29;20415;-85
2024/02/29 05:42:57;;;;;;;2.33;2.13;;;-0.40;97.30;;;;;;4946749;29;20835;-84
2024/02/29 05:45:22;;;;;;;2.07;1.93;;;-0.40;97.30;;;;;;4946207;29;20188;-85
2024/02/29 05:47:50;;;;;;;2.13;1.97;;;-0.40;97.30;;;;;;4946598;29;20194;-84
2024/02/29 05:50:16;;;;;;;4.10;3.73;;;-0.40;97.30;;;;;;4946024;29;20637;-84
2024/02/29 05:52:41;;;;;;;1.40;1.30;;;-0.40;97.30;;;;;;4940513;29;20455;-85
2024/02/29 05:55:07;;;;;;;3.33;2.07;;;-0.40;97.30;;;;;;4944271;29;20412;-84
2024/02/29 05:57:34;;;;;;;2.63;2.43;;;-0.40;97.30;;;;;;4938006;29;20290;-84
2024/02/29 06:00:00;;;;;;;4.00;1.70;;;-0.40;97.30;;;;;;4936894;29;20423;-85
2024/02/29 06:02:30;;;;;;;1.80;1.70;;;-0.30;97.30;;;;;;4935923;29;20475;-84
2024/02/29 06:04:56;;;;;;;4.97;2.80;;;-0.40;97.30;;;;;;4936409;29;20424;-84
2024/02/29 06:07:26;;;;;;;2.70;1.33;;;-0.50;97.30;;;;;;4937710;29;20519;-83
2024/02/29 06:09:52;;;;;;;3.30;3.10;;;-0.60;97.30;;;;;;4938208;29;20922;-85
2024/02/29 06:12:17;;;;;;;4.13;3.73;;;-0.60;97.30;;;;;;4935813;29;20444;-82
2024/02/29 06:14:43;;;;;;;1.77;1.67;;;-0.70;97.30;;;;;;4936337;29;20474;-85
2024/02/29 06:17:08;;;;;;;1.97;1.83;;;-0.80;97.30;;;;;;4936536;29;20299;-84
2024/02/29 06:19:39;;;;;;;10.93;6.33;;;-0.80;97.30;;;;;;4936976;29;20685;-85
2024/02/29 06:22:06;;;;;;;1.70;1.60;;;-0.80;97.30;;;;;;4946789;28;20232;-85
2024/02/29 06:24:32;;;;;;;1.80;1.70;;;-0.70;97.30;;;;;;4936367;29;20424;-84
2024/02/29 06:26:57;;;;;;;1.50;1.40;;;-0.70;97.30;;;;;;4944063;29;20466;-83
2024/02/29 06:29:25;;;;;;;4.13;2.20;;;-0.70;97.30;;;;;;4935666;29;20639;-85
2024/02/29 06:31:51;;;;;;;1.67;1.57;;;-0.60;97.30;;;;;;4939206;29;20214;-86
2024/02/29 06:34:17;;;;;;;2.93;2.30;;;-0.50;97.30;;;;;;4948226;29;20718;-85
2024/02/29 06:36:42;;;;;;;1.10;1.10;;;-0.40;97.30;;;;;;4943147;29;20424;-85
2024/02/29 06:39:08;;;;;;;6.30;2.10;;;-0.30;97.30;;;;;;4941524;29;20211;-85
2024/02/29 06:41:38;;;;;;;1.37;1.27;;;-0.20;97.30;;;;;;4941351;29;20706;-85
2024/02/29 06:44:06;;;;;;;3.20;3.07;;;-0.10;97.30;;;;;;4942163;29;20184;-86
2024/02/29 06:46:34;;;;;;;3.20;3.00;;;-0.10;97.30;;;;;;4956749;29;20462;-85
2024/02/29 06:49:01;;;;;;;2.80;1.83;;;0.00;97.30;;;;;;4936780;29;20511;-85
2024/02/29 06:51:29;;;;;;;4.87;1.53;;;0.10;97.30;;;;;;4934600;29;20439;-85
2024/02/29 06:53:56;;;;;;;1.67;1.60;;;0.20;97.30;;;;;;4932490;29;20810;-85
2024/02/29 06:56:21;;;;;;;1.53;1.43;;;0.30;97.30;;;;;;4931931;29;20771;-85
2024/02/29 06:58:47;;;;;;;2.93;2.73;;;0.50;97.30;;;;;;4932649;29;20490;-86
2024/02/29 07:01:19;;;;;;;1.30;1.20;;;0.60;97.30;;;;;;4931465;29;20838;-86
2024/02/29 07:03:46;;;;;;;5.27;2.00;;;0.70;97.30;;;;;;4930825;29;20570;-85
2024/02/29 07:06:18;;;;;;;2.53;2.33;;;0.90;97.30;;;;;;4934913;29;20819;-86
2024/02/29 07:08:59;;;;;;;3.10;2.90;;;1.00;97.30;;;;;;4932312;29;20677;-85
2024/02/29 07:11:40;;;;;;;7.07;4.17;;;1.10;97.30;;;;;;4935804;29;20457;-85
2024/02/29 07:17:17;;;;;;;6.53;3.57;;;1.40;97.30;;;;;;4936332;29;20426;-85
2024/02/29 07:20:12;;;;;;;2.70;2.50;;;1.60;97.30;;;;;;4935929;29;20479;-85
2024/02/29 07:22:38;;;;;;;3.87;2.90;;;1.80;97.30;;;;;;4926949;29;20471;-85
2024/02/29 07:25:27;;;;;;;3.70;2.03;;;1.90;97.30;;;;;;4935883;29;20465;-86
2024/02/29 07:28:18;;;;;;;4.67;3.63;;;2.10;97.30;;;;;;4924901;29;20420;-85
2024/02/29 07:31:39;;;;;;;8.70;2.63;;;2.20;97.30;;;;;;4932926;29;20475;-85
2024/02/29 07:34:10;;;;;;;3.00;2.80;;;2.40;97.30;;;;;;4865382;29;20536;-85
2024/02/29 07:36:38;;;;;;;2.73;2.23;;;2.70;97.30;;;;;;4936975;29;20415;-85
2024/02/29 07:39:38;;;;;;;1.80;1.70;;;2.80;97.30;;;;;;4935783;29;20548;-85
2024/02/29 07:42:38;;;;;;;7.23;4.60;;;3.00;97.30;;;;;;4930815;29;20742;-85
2024/02/29 07:45:39;;;;;;;6.83;5.40;;;3.20;97.30;;;;;;4935303;29;20419;-85
2024/02/29 07:48:29;;;;;;;7.30;5.30;;;3.40;97.30;;;;;;4935597;29;20436;-85
2024/02/29 07:51:00;;;;;;;9.20;3.37;;;3.70;97.30;;;;;;4878583;29;20445;-85
2024/02/29 07:53:29;;;;;;;3.60;3.10;;;3.90;97.30;;;;;;4889690;29;20425;-85
2024/02/29 07:56:29;;;;;;;2.40;2.23;;;4.00;97.30;;;;;;4920580;29;20450;-85
2024/02/29 07:58:58;;;;;;;7.20;2.70;;;4.20;97.30;;;;;;4932747;29;20506;-85
2024/02/29 08:01:27;;;;;;;7.70;3.43;;;4.40;97.30;;;;;;4934988;29;21055;-85
2024/02/29 08:04:39;;;;;;;2.93;2.73;;;4.60;97.30;;;;;;4936681;29;20463;-85
2024/02/29 08:07:38;;;;;;;2.50;1.50;;;4.80;97.30;;;;;;4924654;29;21001;-85
2024/02/29 08:10:17;;;;;;;3.27;3.07;;;5.00;97.30;;;;;;4942837;29;20459;-85
2024/02/29 08:13:21;;;;;;;4.57;4.30;;;5.20;97.30;;;;;;4931188;29;20502;-84
2024/02/29 08:15:52;;;;;;;4.77;3.70;;;5.40;97.30;;;;;;4924726;29;20714;-85
2024/02/29 08:18:18;;;;;;;4.47;3.43;;;5.50;97.30;;;;;;4935151;29;20906;-84
2024/02/29 08:21:07;;;;;;;3.37;3.17;;;5.60;97.30;;;;;;4934753;29;20527;-85
2024/02/29 08:23:49;;;;;;;4.97;3.17;;;5.80;97.30;;;;;;4934829;29;20479;-85
2024/02/29 08:26:29;;;;;;;6.27;3.63;;;6.00;97.30;;;;;;4936431;29;20475;-84
2024/02/29 08:29:13;;;;;;;4.43;3.63;;;6.10;97.30;;;;;;4932972;29;20430;-85
2024/02/29 08:31:40;;;;;;;3.43;2.43;;;6.20;97.30;;;;;;4934394;29;20821;-84
2024/02/29 08:34:08;;;;;;;4.77;3.10;;;6.30;97.30;;;;;;4935087;29;21125;-85
2024/02/29 08:36:49;;;;;;;4.17;3.93;;;6.40;97.30;;;;;;4935210;29;20463;-85
2024/02/29 08:39:49;;;;;;;3.23;2.40;;;6.50;97.30;;;;;;4935252;29;20467;-84
2024/02/29 08:42:18;;;;;;;15.87;2.40;;;6.70;97.30;;;;;;4935001;28;20458;-85
2024/02/29 08:45:40;;;;;;;4.30;2.40;;;6.80;97.30;;;;;;4931363;29;20431;-85
2024/02/29 08:47:50;;;;;;;4.30;3.70;;;7.00;97.30;;;;;;4932274;29;20520;-85
2024/02/29 08:51:08;;;;;;;9.23;5.27;;;7.20;97.30;;;;;;4934923;29;20432;-85
2024/02/29 08:53:47;;;;;;;9.03;4.63;;;7.40;97.30;;;;;;4924254;29;20843;-85
2024/02/29 08:56:19;;;;;;;14.80;4.57;;;7.50;97.30;;;;;;4934756;29;20470;-84
2024/02/29 08:58:49;;;;;;;7.40;4.00;;;7.40;97.30;;;;;;4931402;29;20471;-84
2024/02/29 09:01:19;;;;;;;5.37;2.80;;;7.40;97.30;;;;;;4930830;29;20471;-85
2024/02/29 09:03:48;;;;;;;2.70;2.50;;;7.50;97.30;;;;;;4931146;29;20456;-85
2024/02/29 09:06:19;;;;;;;4.17;2.47;;;7.60;97.30;;;;;;4934363;29;20455;-84
2024/02/29 09:08:48;;;;;;;3.53;3.33;;;7.70;97.30;;;;;;4930415;29;20831;-84
2024/02/29 09:11:29;;;;;;;3.43;3.23;;;7.80;97.30;;;;;;4930515;29;20435;-85
2024/02/29 09:13:58;;;;;;;7.37;3.47;;;7.80;97.30;;;;;;4931868;29;20482;-85
2024/02/29 09:16:37;;;;;;;3.57;3.37;;;7.80;97.30;;;;;;4934028;29;20419;-85
2024/02/29 09:19:28;;;;;;;8.37;3.47;;;7.90;97.30;;;;;;4935087;29;20518;-85
2024/02/29 09:22:29;;;;;;;6.10;3.90;;;8.00;97.30;;;;;;4925159;29;20530;-84
2024/02/29 09:25:28;;;;;;;2.50;2.30;;;8.10;97.30;;;;;;4928197;29;20434;-85
2024/02/29 09:27:59;;;;;;;22.03;4.10;;;8.10;97.30;;;;;;4928239;29;20439;-84
2024/02/29 09:30:28;;;;;;;8.17;5.07;;;8.30;97.30;;;;;;4933434;29;20470;-85
2024/02/29 09:33:19;;;;;;;2.60;2.40;;;8.30;97.30;;;;;;4933051;29;20560;-84
2024/02/29 09:36:20;;;;;;;4.77;4.00;;;8.20;97.30;;;;;;4929451;29;20432;-85
2024/02/29 09:38:49;;;;;;;4.20;3.80;;;8.20;97.30;;;;;;4933645;28;20906;-85
2024/02/29 09:41:29;;;;;;;4.63;2.30;;;8.30;97.30;;;;;;4933392;29;20431;-85
2024/02/29 09:44:18;;;;;;;3.33;3.13;;;8.50;97.30;;;;;;4932306;29;20463;-85
2024/02/29 09:46:58;;;;;;;6.73;3.40;;;8.60;97.30;;;;;;4929894;29;20428;-85
2024/02/29 09:49:49;;;;;;;3.57;2.90;;;8.60;97.30;;;;;;4934012;29;20427;-85
2024/02/29 09:52:19;;;;;;;5.20;3.93;;;8.70;97.30;;;;;;4925682;29;20444;-84
2024/02/29 09:54:48;;;;;;;8.93;4.37;;;8.60;97.30;;;;;;4929469;29;20471;-85
2024/02/29 09:57:29;;;;;;;8.13;4.00;;;8.70;97.30;;;;;;4933540;29;20455;-86
2024/02/29 10:00:20;;;;;;;4.37;3.30;;;8.90;97.30;;;;;;4933776;29;20820;-85
2024/02/29 10:02:49;;;;;;;8.20;5.50;;;8.90;97.30;;;;;;4927633;29;20993;-86
2024/02/29 10:05:19;;;;;;;4.10;3.00;;;9.20;97.30;;;;;;4933771;29;20419;-85
2024/02/29 10:07:59;;;;;;;5.17;4.80;;;9.20;97.00;;;;;;4929394;29;20452;-83
2024/02/29 10:10:38;;;;;;;4.10;3.00;;;9.20;97.30;;;;;;4930857;29;20433;-83
2024/02/29 10:16:39;;;;;;;8.53;3.60;;;9.30;97.30;;;;;;4924880;29;20424;-86
2024/02/29 10:19:38;;;;;;;7.30;3.80;;;9.40;97.20;;;;;;4933299;29;20522;-83
2024/02/29 10:22:09;;;;;;;5.00;4.30;;;9.50;96.30;;;;;;4877563;29;20504;-84
2024/02/29 10:24:39;;;;;;;5.07;3.07;;;9.60;96.50;;;;;;4892522;29;20445;-84
2024/02/29 10:30:39;;;;;;;5.87;4.10;;;9.70;96.10;;;;;;4895196;29;21034;-84
2024/02/29 10:33:19;;;;;;;3.40;3.20;;;9.90;96.20;;;;;;4893936;29;20429;-83
2024/02/29 10:35:57;;;;;;;3.57;3.00;;;9.90;95.70;;;;;;4901469;29;20965;-83
2024/02/29 10:38:49;;;;;;;4.83;4.53;;;10.00;95.80;;;;;;4933544;29;20470;-83
2024/02/29 10:41:39;;;;;;;4.13;3.77;;;10.10;95.80;;;;;;4924629;29;20612;-83
2024/02/29 10:44:43;;;;;;;;;;;;;;;;;;;;;
2024/02/29 10:47:19;;;;;;;11.47;6.20;;;10.30;94.60;;;;;;4915168;29;20422;-84
2024/02/29 10:50:19;;;;;;;13.60;4.50;;;10.30;94.70;;;;;;4935620;29;21015;-84
2024/02/29 10:53:27;;;;;;;10.23;4.80;;;10.30;94.40;;;;;;4920398;29;20511;-83
2024/02/29 10:59:02;;;;;;;5.50;4.33;;;10.40;94.90;;;;;;4930602;29;20463;-83
2024/02/29 11:01:31;;;;;;;12.40;4.07;;;10.60;94.90;;;;;;4933935;29;20599;-84
2024/02/29 11:03:57;;;;;;;5.87;5.07;;;10.80;94.10;;;;;;4921064;29;20431;-84
2024/02/29 11:06:23;;;;;;;5.53;4.20;;;10.90;94.00;;;;;;4932462;29;20532;-84
2024/02/29 11:08:50;;;;;;;10.43;5.27;;;10.90;93.50;;;;;;4933822;29;20179;-83
2024/02/29 11:11:20;;;;;;;8.23;4.20;;;11.00;92.80;;;;;;4932460;29;20439;-83
2024/02/29 11:13:46;;;;;;;9.53;5.33;;;10.90;93.50;;;;;;4929512;29;20416;-84
2024/02/29 11:16:14;;;;;;;10.33;4.70;;;10.90;93.00;;;;;;4933648;29;20754;-84
2024/02/29 11:18:41;;;;;;;11.63;5.30;;;11.00;92.40;;;;;;4932423;29;20297;-84
2024/02/29 11:21:07;;;;;;;4.93;3.97;;;10.80;92.00;;;;;;4932115;29;20447;-84
2024/02/29 11:23:37;;;;;;;15.27;6.07;;;10.90;92.90;;;;;;4932201;29;20443;-83
2024/02/29 11:26:13;;;;;;;10.13;6.27;;;10.90;92.00;;;;;;4933592;29;20431;-84
2024/02/29 11:28:41;;;;;;;7.40;5.13;;;11.00;92.00;;;;;;4932984;29;21188;-85
2024/02/29 11:31:16;;;;;;;5.53;3.63;;;11.20;92.40;;;;;;4932166;29;20459;-83
2024/02/29 11:33:43;;;;;;;6.50;3.47;;;11.40;92.00;;;;;;4932243;29;20428;-83
2024/02/29 11:36:10;;;;;;;6.47;4.43;;;11.40;91.60;;;;;;4933627;29;20627;-84
2024/02/29 11:38:36;;;;;;;5.73;3.90;;;11.40;91.30;;;;;;4935098;29;21033;-84
2024/02/29 11:41:02;;;;;;;10.07;4.10;;;11.50;90.90;;;;;;4934658;29;20474;-84
2024/02/29 11:43:28;;;;;;;8.30;3.40;;;11.60;91.20;;;;;;4944512;29;20207;-84
2024/02/29 11:45:56;;;;;;;7.30;3.47;;;11.60;90.90;;;;;;4949017;29;20416;-84
2024/02/29 11:48:21;;;;;;;6.73;5.10;;;11.80;91.40;;;;;;4948211;29;20179;-84
2024/02/29 11:50:47;;;;;;;14.20;5.53;;;11.90;90.40;;;;;;4948532;29;20454;-84
2024/02/29 11:53:13;;;;;;;13.73;4.73;;;12.10;90.30;;;;;;4948048;29;20199;-84
2024/02/29 11:55:39;;;;;;;4.80;3.33;;;11.80;89.70;;;;;;4947993;29;20180;-84
2024/02/29 11:58:04;;;;;;;6.03;3.70;;;11.60;90.30;;;;;;4950677;29;20467;-84
2024/02/29 12:00:30;;;;;;;7.20;5.50;;;11.90;91.50;;;;;;4952034;29;20239;-82
2024/02/29 12:02:55;;;;;;;14.23;5.87;;;12.20;90.30;;;;;;4952143;29;20263;-84
2024/02/29 12:05:23;;;;;;;6.97;4.10;;;12.40;90.50;;;;;;4952393;29;20188;-84
2024/02/29 12:07:49;;;;;;;6.30;5.83;;;12.50;89.70;;;;;;4952146;29;20247;-85
2024/02/29 12:10:15;;;;;;;5.87;3.63;;;12.50;89.60;;;;;;4952277;29;20427;-84
2024/02/29 12:12:40;;;;;;;10.57;4.97;;;12.70;89.30;;;;;;4945401;29;21046;-84
2024/02/29 12:15:07;;;;;;;6.70;4.23;;;12.70;88.20;;;;;;4950229;29;20498;-84
2024/02/29 12:17:33;;;;;;;5.23;2.67;;;12.70;88.50;;;;;;4948809;29;20228;-84
2024/02/29 12:19:59;;;;;;;10.57;4.73;;;12.70;88.80;;;;;;4950514;29;20420;-84
2024/02/29 12:22:25;;;;;;;10.50;5.00;;;12.70;88.40;;;;;;4952892;29;20228;-84
2024/02/29 12:24:51;;;;;;;4.30;3.07;;;12.70;88.70;;;;;;4952752;29;20427;-85
2024/02/29 12:27:17;;;;;;;13.00;5.50;;;12.80;88.20;;;;;;4951977;29;20428;-84
2024/02/29 12:29:43;;;;;;;4.03;3.80;;;12.80;88.80;;;;;;4945408;29;20184;-84
2024/02/29 12:32:09;;;;;;;10.20;6.80;;;13.00;88.90;;;;;;4936016;29;20212;-84
2024/02/29 12:34:37;;;;;;;7.47;3.33;;;13.10;88.50;;;;;;4935040;29;20519;-84
2024/02/29 12:37:02;;;;;;;7.80;5.00;;;13.10;87.30;;;;;;4936889;29;20518;-81
2024/02/29 12:39:28;;;;;;;5.13;4.80;;;13.30;87.80;;;;;;4935288;29;20523;-84
2024/02/29 12:41:56;;;;;;;11.70;5.67;;;13.50;87.70;;;;;;4934881;29;20716;-83
2024/02/29 12:44:22;;;;;;;11.23;4.40;;;13.30;87.30;;;;;;4934690;29;20275;-83
2024/02/29 12:46:52;;;;;;;10.00;4.37;;;13.20;87.00;;;;;;4934690;29;20420;-84
2024/02/29 12:49:17;;;;;;;5.80;4.80;;;13.40;87.70;;;;;;4934750;29;20810;-82
2024/02/29 12:51:45;;;;;;;6.00;4.30;;;13.60;87.50;;;;;;4934449;29;20530;-84
2024/02/29 12:54:11;;;;;;;12.47;5.40;;;13.60;87.30;;;;;;4934742;29;20213;-85
2024/02/29 12:56:37;;;;;;;4.77;3.37;;;13.90;87.30;;;;;;4934750;29;20436;-84
2024/02/29 12:59:03;;;;;;;10.63;3.83;;;14.30;87.50;;;;;;4935513;29;20207;-84
2024/02/29 13:01:29;;;;;;;3.60;3.40;;;14.40;84.80;;;;;;4934208;29;20579;-84
2024/02/29 13:03:57;;;;;;;9.90;5.60;;;14.40;85.00;;;;;;4934943;29;20459;-83
2024/02/29 13:06:23;;;;;;;7.33;4.73;;;14.40;84.90;;;;;;4936807;29;20918;-83
2024/02/29 13:08:48;;;;;;;9.43;5.30;;;14.40;84.90;;;;;;4933988;29;20451;-83
2024/02/29 13:11:14;;;;;;;12.83;6.43;;;14.60;85.80;;;;;;4932688;29;20258;-84
2024/02/29 13:13:39;;;;;;;17.53;5.20;;;14.90;84.80;;;;;;4933797;29;20210;-84
2024/02/29 13:16:05;;;;;;;7.90;3.07;;;14.90;83.60;;;;;;4934829;29;20868;-84
2024/02/29 13:18:30;;;;;;;20.33;5.87;;;14.80;84.30;;;;;;4933920;29;20303;-84
2024/02/29 13:20:56;;;;;;;7.37;5.93;;;14.70;83.70;;;;;;4934278;29;20286;-84
2024/02/29 13:23:22;;;;;;;8.73;4.40;;;14.60;83.90;;;;;;4933968;29;20199;-84
2024/02/29 13:25:47;;;;;;;4.90;4.17;;;14.70;84.10;;;;;;4935531;29;20231;-84
2024/02/29 13:28:13;;;;;;;12.77;4.97;;;14.80;84.80;;;;;;4944024;29;20298;-84
2024/02/29 13:30:39;;;;;;;15.80;5.33;;;14.90;83.70;;;;;;4933158;29;20242;-84
2024/02/29 13:33:04;;;;;;;5.63;4.57;;;14.90;83.70;;;;;;4932623;29;20428;-84
2024/02/29 13:35:30;;;;;;;5.30;2.33;;;15.00;83.60;;;;;;4933233;29;20215;-84
2024/02/29 13:37:55;;;;;;;11.73;6.63;;;15.20;84.30;;;;;;4936569;29;20677;-84
2024/02/29 13:40:21;;;;;;;11.63;6.57;;;15.30;83.20;;;;;;4933415;29;20412;-84
2024/02/29 13:42:48;;;;;;;8.60;4.53;;;15.30;82.70;;;;;;4933610;29;20184;-84
2024/02/29 13:45:14;;;;;;;8.23;5.47;;;15.20;82.50;;;;;;4933210;29;20242;-84
2024/02/29 13:47:50;;;;;;;7.93;3.93;;;15.30;82.90;;;;;;4933380;29;20436;-84
2024/02/29 13:50:18;;;;;;;9.60;3.17;;;15.50;82.80;;;;;;4932971;29;20482;-84
2024/02/29 13:52:44;;;;;;;16.40;3.77;;;15.50;82.50;;;;;;4934241;29;20447;-84
2024/02/29 13:55:10;;;;;;;4.77;4.47;;;15.50;82.30;;;;;;4933113;29;20434;-83
2024/02/29 13:57:36;;;;;;;8.17;4.00;;;15.20;82.60;;;;;;4933176;29;20710;-83
2024/02/29 14:00:05;;;;;;;7.50;3.93;;;15.20;82.10;;;;;;4934180;29;20423;-84
2024/02/29 14:02:32;;;;;;;5.87;4.03;;;15.00;82.60;;;;;;4932466;29;20319;-84
2024/02/29 14:04:57;;;;;;;7.63;3.80;;;15.00;83.20;;;;;;4932873;29;20416;-84
2024/02/29 14:07:33;;;;;;;;;;;;;;;;;;;;;
2024/02/29 14:09:59;;;;;;;5.57;4.00;;;15.40;82.90;;;;;;4934001;29;20184;-85
2024/02/29 14:12:27;;;;;;;10.50;4.13;;;15.20;83.00;;;;;;4934260;29;20503;-84
2024/02/29 14:14:55;;;;;;;16.60;6.23;;;15.30;83.00;;;;;;4932680;29;20427;-83
2024/02/29 14:17:21;;;;;;;10.53;4.77;;;15.40;83.10;;;;;;4932904;29;20432;-84
2024/02/29 14:19:46;;;;;;;12.40;3.37;;;15.50;83.00;;;;;;4932138;29;20450;-83
2024/02/29 14:22:12;;;;;;;7.43;5.30;;;15.80;82.90;;;;;;4933014;29;20218;-83
2024/02/29 14:24:37;;;;;;;12.33;3.87;;;15.80;82.30;;;;;;4934962;29;20207;-83
2024/02/29 14:27:03;;;;;;;7.67;3.43;;;15.70;81.80;;;;;;4932938;29;20194;-84
2024/02/29 14:29:28;;;;;;;8.80;5.50;;;15.80;82.00;;;;;;4932419;29;20576;-84
2024/02/29 14:31:56;;;;;;;6.90;3.90;;;16.00;81.80;;;;;;4933883;29;20247;-83
2024/02/29 14:34:22;;;;;;;4.27;3.50;;;15.80;81.80;;;;;;4934168;29;20184;-84
2024/02/29 14:36:47;;;;;;;11.13;5.17;;;15.60;82.20;;;;;;4932595;29;20985;-84
2024/02/29 14:39:14;;;;;;;7.10;4.10;;;15.50;82.30;;;;;;4946183;29;20647;-83
2024/02/29 14:41:40;;;;;;;7.77;4.20;;;15.30;82.50;;;;;;4932205;29;20200;-84
2024/02/29 14:44:06;;;;;;;13.03;5.33;;;15.50;82.60;;;;;;4931481;29;20490;-84
2024/02/29 14:46:32;;;;;;;4.00;3.13;;;15.40;82.60;;;;;;4932002;29;20419;-84
2024/02/29 14:48:59;;;;;;;5.17;4.47;;;15.60;82.80;;;;;;4932395;29;20266;-84
2024/02/29 14:51:24;;;;;;;6.53;3.90;;;16.00;82.70;;;;;;4933116;29;20974;-85
2024/02/29 14:53:52;;;;;;;3.70;2.70;;;15.90;81.30;;;;;;4932712;29;20508;-84
2024/02/29 14:56:18;;;;;;;6.10;4.37;;;16.10;81.70;;;;;;4931973;29;20187;-83
2024/02/29 14:58:43;;;;;;;4.40;4.10;;;16.10;81.70;;;;;;4932666;29;20481;-84
2024/02/29 15:01:12;;;;;;;8.50;4.47;;;15.80;81.90;;;;;;4933120;29;20530;-84
2024/02/29 15:03:38;;;;;;;7.27;3.70;;;15.80;82.00;;;;;;4932279;29;20182;-84
2024/02/29 15:06:04;;;;;;;7.00;5.10;;;15.70;82.10;;;;;;4931902;29;20804;-84
2024/02/29 15:08:30;;;;;;;9.47;6.03;;;15.50;81.80;;;;;;4932972;29;21025;-84
2024/02/29 15:10:56;;;;;;;10.03;4.83;;;15.50;82.40;;;;;;4931778;29;20531;-84
2024/02/29 15:13:21;;;;;;;12.23;5.77;;;15.40;82.60;;;;;;4932134;29;20179;-84
2024/02/29 15:15:47;;;;;;;6.70;3.57;;;15.20;82.80;;;;;;4933630;29;20196;-84
2024/02/29 15:18:15;;;;;;;11.30;5.67;;;15.30;82.70;;;;;;4932377;29;20200;-84
2024/02/29 15:20:41;;;;;;;8.97;5.53;;;15.30;82.90;;;;;;4932436;29;20213;-84
2024/02/29 15:23:06;;;;;;;7.13;3.53;;;15.50;82.60;;;;;;4932296;29;20415;-84
2024/02/29 15:25:32;;;;;;;6.03;3.87;;;15.60;82.80;;;;;;4931914;29;20767;-84
2024/02/29 15:28:03;;;;;;;5.53;4.03;;;15.70;82.30;;;;;;4932448;29;20187;-84
2024/02/29 15:30:31;;;;;;;9.27;4.93;;;16.00;82.20;;;;;;4932075;29;20565;-84
2024/02/29 15:32:57;;;;;;;7.23;4.10;;;16.00;81.50;;;;;;4940317;29;20428;-84
2024/02/29 15:35:25;;;;;;;6.33;3.30;;;15.70;81.40;;;;;;4950689;29;20427;-84
2024/02/29 15:37:53;;;;;;;7.40;4.70;;;15.80;81.60;;;;;;4955118;29;20231;-84
2024/02/29 15:40:18;;;;;;;6.07;4.20;;;15.90;81.40;;;;;;4950550;29;20419;-85
2024/02/29 15:42:47;;;;;;;4.77;4.13;;;15.60;81.80;;;;;;4948355;29;20432;-84
2024/02/29 15:45:12;;;;;;;8.13;5.30;;;15.50;81.50;;;;;;4936567;29;20184;-83
2024/02/29 15:47:39;;;;;;;4.40;3.70;;;15.30;82.20;;;;;;4936641;29;20423;-84
2024/02/29 15:50:07;;;;;;;16.40;6.87;;;15.30;82.30;;;;;;4938491;29;20192;-84
2024/02/29 15:52:33;;;;;;;7.60;4.50;;;15.70;82.40;;;;;;4937469;29;20478;-84
2024/02/29 15:55:00;;;;;;;8.53;5.47;;;16.00;82.10;;;;;;4936777;29;21017;-84
2024/02/29 15:57:26;;;;;;;7.07;4.70;;;16.20;82.30;;;;;;4936192;29;20841;-84
2024/02/29 15:59:54;;;;;;;5.70;3.53;;;16.30;82.80;;;;;;4936217;29;20419;-84
2024/02/29 16:02:20;;;;;;;6.63;3.00;;;16.30;83.10;;;;;;4942082;29;20253;-84
2024/02/29 16:04:46;;;;;;;14.17;3.30;;;16.00;83.80;;;;;;4942207;29;20925;-84
2024/02/29 16:07:12;;;;;;;5.57;3.47;;;15.70;84.60;;;;;;4934780;29;20176;-84
2024/02/29 16:09:38;;;;;;;16.13;3.87;;;15.60;85.10;;;;;;4934798;29;20770;-86
2024/02/29 16:12:05;;;;;;;5.40;2.53;;;15.50;85.30;;;;;;4938040;29;20196;-85
2024/02/29 16:14:31;;;;;;;5.83;3.70;;;15.20;86.10;;;;;;4935251;29;20190;-85
2024/02/29 16:16:57;;;;;;;7.10;5.37;;;14.80;86.60;;;;;;4935260;29;20408;-85
2024/02/29 16:19:27;;;;;;;2.90;2.50;;;14.50;87.50;;;;;;4937078;29;20215;-84
2024/02/29 16:21:52;;;;;;;3.73;3.53;;;14.30;88.20;;;;;;4935353;29;20870;-85
2024/02/29 16:24:18;;;;;;;12.67;4.97;;;13.70;89.50;;;;;;4936864;29;20436;-85
2024/02/29 16:26:43;;;;;;;8.43;4.13;;;13.20;90.80;;;;;;4935120;29;20242;-84
2024/02/29 16:29:09;;;;;;;9.43;5.00;;;12.90;91.70;;;;;;4934966;29;20222;-84
2024/02/29 16:31:34;;;;;;;11.20;3.60;;;12.30;93.10;;;;;;4934430;29;20216;-84
2024/02/29 16:34:00;;;;;;;5.33;3.93;;;11.80;94.40;;;;;;4934711;29;20191;-84
2024/02/29 16:36:25;;;;;;;8.33;5.67;;;11.50;95.50;;;;;;4934475;29;20553;-84
2024/02/29 16:38:51;;;;;;;7.13;3.33;;;11.20;96.60;;;;;;4935844;29;20218;-84
2024/02/29 16:41:16;;;;;;;9.43;4.37;;;11.00;97.20;;;;;;4934656;29;20266;-83
2024/02/29 16:43:42;;;;;;;16.43;6.73;;;10.80;97.30;;;;;;4933550;29;20187;-85
2024/02/29 16:46:08;;;;;;;3.33;3.13;;;10.60;97.30;;;;;;4935614;29;20599;-85
2024/02/29 16:48:34;;;;;;;7.83;3.97;;;10.40;97.30;;;;;;4935580;29;20191;-85
2024/02/29 16:51:01;;;;;;;7.73;2.97;;;10.30;97.30;;;;;;4934197;29;20440;-84
2024/02/29 16:53:26;;;;;;;6.23;3.00;;;10.10;97.30;;;;;;4935178;29;20179;-84
2024/02/29 16:55:59;;;;;;;8.30;3.63;;;10.00;97.30;;;;;;4934409;29;20438;-83
2024/02/29 16:58:27;;;;;;;3.77;3.10;;;9.90;97.30;;;;;;4934284;29;20207;-85
2024/02/29 17:00:54;;;;;;;4.10;3.37;;;9.80;97.30;;;;;;4935031;29;20844;-84
2024/02/29 17:03:20;;;;;;;9.17;4.70;;;9.60;97.30;;;;;;4933830;29;20428;-84
2024/02/29 17:05:45;;;;;;;4.20;3.30;;;9.60;97.30;;;;;;4933554;29;20440;-84
2024/02/29 17:08:11;;;;;;;11.37;2.47;;;9.50;97.30;;;;;;4933916;29;20196;-84
2024/02/29 17:10:36;;;;;;;5.17;3.57;;;9.40;97.30;;;;;;4933797;29;20204;-84
2024/02/29 17:13:02;;;;;;;3.20;3.00;;;9.30;97.30;;;;;;4933570;29;20199;-84
2024/02/29 17:15:28;;;;;;;6.03;2.60;;;9.30;97.30;;;;;;4933901;29;20278;-84
2024/02/29 17:17:53;;;;;;;6.83;5.27;;;9.20;97.30;;;;;;4933826;29;20911;-84
2024/02/29 17:20:19;;;;;;;4.37;3.87;;;9.10;97.30;;;;;;4933783;29;20203;-84
2024/02/29 17:22:46;;;;;;;5.20;3.40;;;9.00;97.30;;;;;;4933055;29;20188;-85
2024/02/29 17:25:12;;;;;;;7.53;3.63;;;9.00;97.30;;;;;;4934779;29;20183;-84
2024/02/29 17:27:38;;;;;;;10.20;2.87;;;8.90;97.30;;;;;;4933278;29;20720;-84
2024/02/29 17:30:04;;;;;;;2.83;2.67;;;8.80;97.30;;;;;;4934371;29;20195;-84
2024/02/29 17:32:29;;;;;;;5.37;3.33;;;8.70;97.30;;;;;;4932608;29;20452;-84
2024/02/29 17:34:55;;;;;;;5.10;3.50;;;8.70;97.30;;;;;;4933284;29;20520;-84
2024/02/29 17:37:21;;;;;;;7.00;4.57;;;8.60;97.30;;;;;;4933262;29;20183;-83
2024/02/29 17:39:46;;;;;;;9.70;6.37;;;8.50;97.30;;;;;;4934252;29;20659;-84
2024/02/29 17:42:12;;;;;;;4.37;3.90;;;8.40;97.30;;;;;;4933598;29;20258;-84
2024/02/29 17:44:38;;;;;;;2.20;2.00;;;8.40;97.30;;;;;;4933475;29;20184;-84
2024/02/29 17:47:04;;;;;;;3.80;3.60;;;8.30;97.30;;;;;;4933616;29;20639;-84
2024/02/29 17:49:31;;;;;;;6.77;2.60;;;8.20;97.30;;;;;;4933777;29;20439;-84
2024/02/29 17:51:57;;;;;;;3.77;2.20;;;8.20;97.30;;;;;;4933008;29;20622;-84
2024/02/29 17:54:25;;;;;;;4.13;3.40;;;8.10;97.30;;;;;;4932231;29;20435;-83
2024/02/29 17:56:53;;;;;;;5.93;4.23;;;8.00;97.30;;;;;;4932863;29;20179;-84
2024/02/29 17:59:20;;;;;;;6.90;2.80;;;8.00;97.30;;;;;;4940675;29;20462;-84
2024/02/29 18:01:45;;;;;;;12.23;2.73;;;8.00;97.30;;;;;;4939144;28;20470;-84
2024/02/29 18:04:11;;;;;;;3.10;2.60;;;8.00;97.30;;;;;;4947524;29;20514;-84
2024/02/29 18:06:37;;;;;;;5.97;4.77;;;7.90;97.30;;;;;;4949878;29;20552;-84
2024/02/29 18:09:03;;;;;;;5.20;4.63;;;7.90;97.30;;;;;;4945675;29;20197;-84
2024/02/29 18:11:29;;;;;;;9.33;4.97;;;7.80;97.30;;;;;;4936050;29;20199;-84
2024/02/29 18:13:55;;;;;;;3.73;2.40;;;7.80;97.30;;;;;;4940009;29;20772;-83
2024/02/29 18:16:20;;;;;;;5.00;3.00;;;7.70;97.30;;;;;;4950009;29;20314;-84
2024/02/29 18:18:46;;;;;;;7.90;2.90;;;7.70;97.30;;;;;;4947860;29;20471;-84
2024/02/29 18:21:11;;;;;;;15.43;5.67;;;7.60;97.30;;;;;;4946397;29;20250;-84